Time;durP1;ratioP1;P1;durP2;ratioP2;P2;SDS_P1;SDS_P2;PMS_P1;PMS_P2;Temp;Humidity;BMP_temperature;BMP_pressure;BME280_temperature;BME280_humidity;BME280_pressure;Samples;Min_cycle;Max_cycle;Signal;HPM_P1;HPM_P2
2022/07/10 00:02:06;;;;;;;;;;;;;;;16.57;100.00;100430.13;5073074;28;19924;-79
2022/07/10 00:04:33;;;;;;;;;;;;;;;16.85;100.00;100426.75;5074236;28;19924;-79
2022/07/10 00:07:01;;;;;;;;;;;;;;;16.66;100.00;100419.84;5073101;28;19931;-79
2022/07/10 00:09:29;;;;;;;;;;;;;;;16.31;100.00;100416.88;5073921;28;20364;-79
2022/07/10 00:11:56;;;;;;;;;;;;;;;16.63;100.00;100417.13;5072861;28;19935;-79
2022/07/10 00:14:23;;;;;;;;;;;;;;;16.45;100.00;100416.66;5074121;28;19924;-79
2022/07/10 00:16:50;;;;;;;;;;;;;;;16.73;100.00;100404.81;5074047;28;20344;-79
2022/07/10 00:19:17;;;;;;;;;;;;;;;16.63;100.00;100409.44;5074050;28;19929;-79
2022/07/10 00:21:45;;;;;;;;;;;;;;;16.86;100.00;100414.22;5074037;28;20489;-79
2022/07/10 00:24:12;;;;;;;;;;;;;;;16.62;100.00;100404.22;5073771;28;19963;-79
2022/07/10 00:26:39;;;;;;;;;;;;;;;16.41;100.00;100402.56;5072743;28;19932;-79
2022/07/10 00:29:08;;;;;;;;;;;;;;;15.52;100.00;100410.91;5072632;28;19974;-79
2022/07/10 00:31:35;;;;;;;;;;;;;;;15.89;100.00;100407.91;5072654;28;20310;-79
2022/07/10 00:34:02;;;;;;;;;;;;;;;16.05;100.00;100399.56;5072674;28;19975;-79
2022/07/10 00:36:29;;;;;;;;;;;;;;;15.87;100.00;100396.25;5073582;28;19928;-79
2022/07/10 00:38:57;;;;;;;;;;;;;;;16.07;100.00;100397.13;5073901;28;19932;-79
2022/07/10 00:41:24;;;;;;;;;;;;;;;16.30;100.00;100392.72;5073902;28;19925;-79
2022/07/10 00:43:51;;;;;;;;;;;;;;;16.34;100.00;100391.44;5073978;28;19924;-79
2022/07/10 00:46:20;;;;;;;;;;;;;;;16.05;100.00;100377.00;5056363;28;19925;-79
2022/07/10 00:48:47;;;;;;;;;;;;;;;15.27;100.00;100387.09;5073771;28;19925;-79
2022/07/10 00:51:16;;;;;;;;;;;;;;;15.39;100.00;100390.16;5072370;28;19978;-79
2022/07/10 00:53:44;;;;;;;;;;;;;;;15.71;100.00;100386.84;5072482;28;20023;-79
2022/07/10 00:56:13;;;;;;;;;;;;;;;15.86;100.00;100386.22;5073757;28;19950;-79
2022/07/10 00:58:41;;;;;;;;;;;;;;;15.40;100.00;100382.53;5073626;28;19924;-79
2022/07/10 01:01:33;;;;;;;;;;;;;;;15.67;100.00;100383.31;5105950;28;19931;-79
2022/07/10 01:04:01;;;;;;;;;;;;;;;15.68;100.00;100377.25;5073858;28;19924;-79
2022/07/10 01:06:28;;;;;;;;;;;;;;;15.18;100.00;100381.19;5072098;28;19929;-79
2022/07/10 01:08:55;;;;;;;;;;;;;;;14.85;100.00;100382.84;5072474;28;19996;-79
2022/07/10 01:11:22;;;;;;;;;;;;;;;15.13;100.00;100376.81;5072081;28;19931;-79
2022/07/10 01:13:49;;;;;;;;;;;;;;;14.95;100.00;100378.28;5074131;28;19931;-79
2022/07/10 01:16:17;;;;;;;;;;;;;;;15.09;100.00;100364.00;5077682;28;20279;-79
2022/07/10 01:18:44;;;;;;;;;;;;;;;15.21;100.00;100361.44;5077515;28;19977;-79
2022/07/10 01:21:30;;;;;;;;;;;;;;;14.92;100.00;100365.84;5077045;28;20367;-79
2022/07/10 01:23:58;;;;;;;;;;;;;;;14.59;100.00;100372.28;5093322;28;20162;-79
2022/07/10 01:26:25;;;;;;;;;;;;;;;14.89;100.00;100369.50;5077268;28;19924;-79
2022/07/10 01:28:54;;;;;;;;;;;;;;;15.26;100.00;100368.59;5075951;28;19931;-79
2022/07/10 01:31:27;;;;;;;;;;;;;;;14.62;100.00;100370.63;5077146;28;19924;-78
2022/07/10 01:33:55;;;;;;;;;;;;;;;14.62;100.00;100362.19;5077163;28;19925;-78
2022/07/10 01:36:22;;;;;;;;;;;;;;;14.89;100.00;100371.53;5076753;28;19939;-79
2022/07/10 01:38:54;;;;;;;;;;;;;;;15.16;100.00;100363.94;5077046;28;19966;-79
2022/07/10 01:41:21;;;;;;;;;;;;;;;15.14;100.00;100349.47;5075747;28;19924;-79
2022/07/10 01:43:48;;;;;;;;;;;;;;;15.17;100.00;100343.81;5075854;28;20368;-79
2022/07/10 01:46:16;;;;;;;;;;;;;;;14.78;100.00;100343.53;5076989;28;19968;-79
2022/07/10 01:48:43;;;;;;;;;;;;;;;14.81;100.00;100353.16;5076854;28;19963;-79
2022/07/10 01:51:11;;;;;;;;;;;;;;;14.72;100.00;100359.28;5075365;28;20058;-79
2022/07/10 01:53:38;;;;;;;;;;;;;;;14.19;100.00;100362.63;5076705;28;19924;-78
2022/07/10 01:56:07;;;;;;;;;;;;;;;14.25;100.00;100361.00;5075435;28;20376;-79
2022/07/10 01:58:34;;;;;;;;;;;;;;;14.71;100.00;100349.22;5076764;28;20260;-78
2022/07/10 02:01:03;;;;;;;;;;;;;;;14.91;100.00;100350.19;5076662;28;19994;-78
2022/07/10 02:06:16;;;;;;;;;;;;;;;15.10;100.00;100343.09;5075402;28;20303;-78
2022/07/10 02:08:43;;;;;;;;;;;;;;;14.88;100.00;100341.78;5076503;28;19924;-79
2022/07/10 02:11:12;;;;;;;;;;;;;;;14.61;100.00;100344.56;5076477;28;19964;-79
2022/07/10 02:13:39;;;;;;;;;;;;;;;14.49;100.00;100345.09;5076140;28;19924;-79
2022/07/10 02:16:06;;;;;;;;;;;;;;;14.79;100.00;100345.13;5076286;28;20363;-79
2022/07/10 02:18:33;;;;;;;;;;;;;;;14.88;100.00;100345.41;5076125;28;19924;-79
2022/07/10 02:21:02;;;;;;;;;;;;;;;15.03;100.00;100349.63;5075159;28;19925;-79
2022/07/10 02:23:29;;;;;;;;;;;;;;;15.03;100.00;100343.19;5076205;28;19934;-79
2022/07/10 02:25:56;;;;;;;;;;;;;;;14.28;100.00;100337.69;5073810;28;19929;-79
2022/07/10 02:28:25;;;;;;;;;;;;;;;14.37;100.00;100340.00;5076116;28;19956;-79
2022/07/10 02:30:52;;;;;;;;;;;;;;;13.61;100.00;100343.13;5074994;28;19931;-79
2022/07/10 02:33:19;;;;;;;;;;;;;;;14.22;100.00;100344.16;5075924;28;19931;-79
2022/07/10 02:35:47;;;;;;;;;;;;;;;14.27;100.00;100341.72;5074684;28;19924;-79
2022/07/10 02:38:14;;;;;;;;;;;;;;;14.66;100.00;100341.25;5076114;28;20011;-79
2022/07/10 02:40:41;;;;;;;;;;;;;;;14.44;100.00;100340.72;5074858;28;19925;-79
2022/07/10 02:43:09;;;;;;;;;;;;;;;14.49;100.00;100334.63;5074772;28;19959;-79
2022/07/10 02:45:36;;;;;;;;;;;;;;;13.61;100.00;100339.50;5075969;28;20279;-79
2022/07/10 02:48:04;;;;;;;;;;;;;;;14.01;100.00;100344.38;5075729;28;19964;-78
2022/07/10 02:50:31;;;;;;;;;;;;;;;14.01;100.00;100341.56;5074521;28;19928;-79
2022/07/10 02:52:59;;;;;;;;;;;;;;;14.18;100.00;100340.56;5075824;28;19936;-79
2022/07/10 02:55:31;;;;;;;;;;;;;;;14.07;100.00;100337.09;5074366;28;19951;-79
2022/07/10 02:57:59;;;;;;;;;;;;;;;13.47;100.00;100334.00;5074438;28;19935;-79
2022/07/10 03:00:27;;;;;;;;;;;;;;;13.02;100.00;100335.09;5075420;28;19932;-79
2022/07/10 03:02:54;;;;;;;;;;;;;;;13.32;100.00;100341.72;5075414;28;20382;-78
2022/07/10 03:05:21;;;;;;;;;;;;;;;13.45;100.00;100330.81;5075520;28;19924;-78
2022/07/10 03:07:48;;;;;;;;;;;;;;;13.60;100.00;100323.88;5075494;28;20440;-78
2022/07/10 03:10:16;;;;;;;;;;;;;;;13.70;100.00;100334.22;5075287;28;19928;-78
2022/07/10 03:12:43;;;;;;;;;;;;;;;14.06;100.00;100335.47;5075201;28;19925;-78
2022/07/10 03:15:10;;;;;;;;;;;;;;;13.77;100.00;100331.34;5075190;28;20406;-79
2022/07/10 03:17:38;;;;;;;;;;;;;;;13.86;100.00;100331.66;5075013;28;19959;-79
2022/07/10 03:20:05;;;;;;;;;;;;;;;14.04;100.00;100318.25;5073992;28;19924;-79
2022/07/10 03:22:32;;;;;;;;;;;;;;;14.15;100.00;100328.16;5074128;28;19974;-79
2022/07/10 03:24:59;;;;;;;;;;;;;;;13.64;100.00;100317.03;5075262;28;19925;-79
2022/07/10 03:27:27;;;;;;;;;;;;;;;13.73;100.00;100319.34;5073858;28;19924;-79
2022/07/10 03:29:54;;;;;;;;;;;;;;;13.65;100.00;100315.00;5073998;28;19925;-79
2022/07/10 03:32:21;;;;;;;;;;;;;;;13.55;100.00;100313.06;5074665;28;19924;-79
2022/07/10 03:34:48;;;;;;;;;;;;;;;13.92;100.00;100308.31;5073752;28;20028;-79
2022/07/10 03:37:15;;;;;;;;;;;;;;;14.21;100.00;100308.81;5074434;28;19924;-78
2022/07/10 03:39:42;;;;;;;;;;;;;;;14.09;100.00;100300.91;5074872;28;19924;-79
2022/07/10 03:42:09;;;;;;;;;;;;;;;13.81;100.00;100306.84;5073732;28;20073;-78
2022/07/10 03:44:36;;;;;;;;;;;;;;;14.09;100.00;100298.09;5074718;28;20322;-78
2022/07/10 03:47:04;;;;;;;;;;;;;;;13.94;100.00;100293.84;5074514;28;19978;-79
2022/07/10 03:49:31;;;;;;;;;;;;;;;13.59;100.00;100303.41;5074840;28;19931;-78
2022/07/10 03:52:00;;;;;;;;;;;;;;;14.07;100.00;100292.13;5074693;28;19932;-79
2022/07/10 03:54:27;;;;;;;;;;;;;;;14.07;100.00;100287.28;5073423;28;20076;-79
2022/07/10 03:59:40;;;;;;;;;;;;;;;14.24;100.00;100296.75;5056453;28;20291;-78
2022/07/10 04:02:08;;;;;;;;;;;;;;;14.33;100.00;100294.25;5073207;28;19946;-79
2022/07/10 04:04:35;;;;;;;;;;;;;;;14.40;100.00;100294.97;5074629;28;19928;-79
2022/07/10 04:07:04;;;;;;;;;;;;;;;14.44;100.00;100294.94;5074516;28;19928;-79
2022/07/10 04:09:31;;;;;;;;;;;;;;;14.49;100.00;100288.84;5073127;28;19924;-79
2022/07/10 04:11:58;;;;;;;;;;;;;;;14.12;100.00;100291.66;5072982;28;20342;-79
2022/07/10 04:14:25;;;;;;;;;;;;;;;14.08;100.00;100288.91;5074115;28;19925;-79
2022/07/10 04:16:54;;;;;;;;;;;;;;;14.29;100.00;100299.13;5073488;28;20205;-79
2022/07/10 04:19:21;;;;;;;;;;;;;;;14.44;100.00;100289.31;5073157;28;20015;-78
2022/07/10 04:21:48;;;;;;;;;;;;;;;14.36;100.00;100287.78;5073223;28;19924;-78
2022/07/10 04:24:16;;;;;;;;;;;;;;;13.59;100.00;100294.97;5074471;28;19960;-79
2022/07/10 04:26:43;;;;;;;;;;;;;;;13.58;100.00;100295.41;5074350;28;19956;-78
2022/07/10 04:29:11;;;;;;;;;;;;;;;13.94;100.00;100286.22;5072729;28;19931;-78
2022/07/10 04:31:38;;;;;;;;;;;;;;;14.10;100.00;100285.66;5073034;28;19925;-78
2022/07/10 04:34:05;;;;;;;;;;;;;;;14.18;100.00;100287.97;5074143;28;20568;-78
2022/07/10 04:36:32;;;;;;;;;;;;;;;14.24;100.00;100286.31;5073946;28;20026;-78
2022/07/10 04:38:59;;;;;;;;;;;;;;;14.29;100.00;100287.88;5072908;28;19935;-78
2022/07/10 04:41:26;;;;;;;;;;;;;;;13.64;100.00;100288.13;5073934;28;19947;-78
2022/07/10 04:43:53;;;;;;;;;;;;;;;13.91;100.00;100291.88;5073668;28;20373;-78
2022/07/10 04:46:20;;;;;;;;;;;;;;;14.11;100.00;100292.88;5073993;28;19967;-78
2022/07/10 04:48:48;;;;;;;;;;;;;;;13.89;100.00;100285.88;5071965;28;19924;-78
2022/07/10 04:51:16;;;;;;;;;;;;;;;13.70;100.00;100278.03;5072779;28;19931;-78
2022/07/10 04:53:43;;;;;;;;;;;;;;;14.10;100.00;100285.66;5073983;28;20019;-79
2022/07/10 04:56:10;;;;;;;;;;;;;;;13.97;100.00;100285.38;5073828;28;19935;-78
2022/07/10 04:58:37;;;;;;;;;;;;;;;13.93;100.00;100279.00;5073553;28;20051;-78
2022/07/10 05:01:04;;;;;;;;;;;;;;;14.21;100.00;100283.50;5073806;28;19924;-78
2022/07/10 05:03:32;;;;;;;;;;;;;;;13.39;100.00;100281.94;5073653;28;19925;-78
2022/07/10 05:05:59;;;;;;;;;;;;;;;13.17;100.00;100281.28;5073957;28;20267;-78
2022/07/10 05:08:26;;;;;;;;;;;;;;;12.93;100.00;100296.25;5073729;28;20421;-78
2022/07/10 05:10:53;;;;;;;;;;;;;;;13.66;100.00;100289.28;5073549;28;19932;-78
2022/07/10 05:13:20;;;;;;;;;;;;;;;14.15;100.00;100283.19;5071994;28;20066;-78
2022/07/10 05:15:49;;;;;;;;;;;;;;;14.51;100.00;100277.19;5072351;28;20364;-78
2022/07/10 05:18:16;;;;;;;;;;;;;;;14.88;100.00;100274.25;5073472;28;19964;-78
2022/07/10 05:20:47;;;;;;;;;;;;;;;15.05;100.00;100279.63;5073544;28;19924;-78
2022/07/10 05:23:15;;;;;;;;;;;;;;;15.15;100.00;100270.22;5073562;28;19925;-78
2022/07/10 05:25:42;;;;;;;;;;;;;;;15.19;100.00;100273.00;5073414;28;19962;-78
2022/07/10 05:28:09;;;;;;;;;;;;;;;15.16;100.00;100274.63;5073318;28;20364;-79
2022/07/10 05:30:37;;;;;;;;;;;;;;;15.42;100.00;100268.22;5073503;28;19925;-78
2022/07/10 05:33:04;;;;;;;;;;;;;;;15.42;100.00;100265.38;5073474;28;20268;-79
2022/07/10 05:35:32;;;;;;;;;;;;;;;15.49;100.00;100259.66;5073035;28;19932;-79
2022/07/10 05:37:59;;;;;;;;;;;;;;;15.34;100.00;100268.72;5072164;28;20304;-79
2022/07/10 05:40:27;;;;;;;;;;;;;;;15.12;100.00;100268.25;5073266;28;19924;-79
2022/07/10 05:42:55;;;;;;;;;;;;;;;15.10;100.00;100273.50;5073033;28;19932;-79
2022/07/10 05:45:22;;;;;;;;;;;;;;;15.29;100.00;100266.38;5072184;28;19969;-79
2022/07/10 05:47:49;;;;;;;;;;;;;;;15.71;100.00;100266.50;5073271;28;20320;-79
2022/07/10 05:50:16;;;;;;;;;;;;;;;15.84;100.00;100253.38;5073149;28;19925;-79
2022/07/10 05:52:43;;;;;;;;;;;;;;;15.95;100.00;100270.09;5073216;28;19964;-79
2022/07/10 05:55:10;;;;;;;;;;;;;;;16.18;100.00;100268.03;5073054;28;19928;-79
2022/07/10 05:57:37;;;;;;;;;;;;;;;16.60;100.00;100262.78;5071729;28;19924;-79
2022/07/10 06:00:07;;;;;;;;;;;;;;;16.87;100.00;100261.38;5075202;28;19955;-79
2022/07/10 06:02:40;;;;;;;;;;;;;;;16.98;100.00;100259.06;5075584;28;20398;-79
2022/07/10 06:05:07;;;;;;;;;;;;;;;16.91;100.00;100264.91;5076628;28;20011;-79
2022/07/10 06:07:35;;;;;;;;;;;;;;;16.91;100.00;100264.09;5075231;28;19930;-79
2022/07/10 06:10:03;;;;;;;;;;;;;;;16.67;100.00;100259.78;5075002;28;20065;-81
2022/07/10 06:12:30;;;;;;;;;;;;;;;16.77;100.00;100270.84;5076404;28;20027;-79
2022/07/10 06:14:57;;;;;;;;;;;;;;;17.11;100.00;100259.19;5076533;28;19929;-79
2022/07/10 06:17:25;;;;;;;;;;;;;;;17.38;100.00;100259.75;5076392;28;19925;-80
2022/07/10 06:19:52;;;;;;;;;;;;;;;17.51;100.00;100257.81;5076432;28;19928;-80
2022/07/10 06:22:31;;;;;;;;;;;;;;;17.79;100.00;100251.47;5075244;28;19960;-79
2022/07/10 06:24:59;;;;;;;;;;;;;;;18.05;100.00;100255.19;5076873;28;19925;-80
2022/07/10 06:27:27;;;;;;;;;;;;;;;18.18;100.00;100245.53;5076924;28;19924;-81
2022/07/10 06:29:55;;;;;;;;;;;;;;;18.32;100.00;100244.31;5074947;28;20017;-80
2022/07/10 06:32:24;;;;;;;;;;;;;;;18.45;100.00;100248.81;5074897;28;19924;-81
2022/07/10 06:34:52;;;;;;;;;;;;;;;18.54;100.00;100239.69;5058285;28;19925;-82
2022/07/10 06:37:19;;;;;;;;;;;;;;;18.58;100.00;100234.69;5074800;28;20010;-82
2022/07/10 06:39:49;;;;;;;;;;;;;;;18.55;100.00;100242.06;5058182;28;20015;-82
2022/07/10 06:42:16;;;;;;;;;;;;;;;18.35;100.00;100244.22;5058132;28;19977;-82
2022/07/10 06:44:47;;;;;;;;;;;;;;;18.52;100.00;100240.13;5075504;28;19924;-87
2022/07/10 06:50:06;;;;;;;;;;;;;;;18.87;100.00;100247.53;5069901;28;20642;-86
2022/07/10 06:52:33;;;;;;;;;;;;;;;18.92;100.00;100244.13;5055150;28;19924;-84
2022/07/10 06:55:01;;;;;;;;;;;;;;;19.04;100.00;100243.34;5037127;28;19971;-80
2022/07/10 06:57:29;;;;;;;;;;;;;;;19.14;100.00;100239.41;5070824;28;19928;-79
2022/07/10 06:59:56;;;;;;;;;;;;;;;20.11;100.00;100238.53;5039140;28;20114;-84
2022/07/10 07:02:25;;;;;;;;;;;;;;;21.13;100.00;100229.75;5073552;28;19974;-81
2022/07/10 07:04:52;;;;;;;;;;;;;;;23.43;100.00;100224.66;5073870;28;19932;-80
2022/07/10 07:07:19;;;;;;;;;;;;;;;25.77;100.00;100208.00;5074383;28;20521;-81
2022/07/10 07:09:50;;;;;;;;;;;;;;;27.63;100.00;100195.22;5075078;28;19981;-81
2022/07/10 07:12:17;;;;;;;;;;;;;;;29.25;100.00;100178.66;5074772;28;20372;-82
2022/07/10 07:14:45;;;;;;;;;;;;;;;30.38;100.00;100170.72;5074713;28;19924;-82
2022/07/10 07:17:14;;;;;;;;;;;;;;;31.44;100.00;100163.56;5074329;28;20018;-83
2022/07/10 07:25:12;;;;;;;;;;;;;;;33.88;100.00;100150.59;5074117;28;20276;-81
2022/07/10 07:27:41;;;;;;;;;;;;;;;34.71;100.00;100145.78;5073745;28;19932;-80
2022/07/10 07:30:10;;;;;;;;;;;;;;;34.50;100.00;100142.09;5073373;28;20347;-79
2022/07/10 07:32:38;;;;;;;;;;;;;;;34.64;100.00;100150.16;5074583;28;20380;-79
2022/07/10 07:35:05;;;;;;;;;;;;;;;35.34;100.00;100153.97;5074502;28;20028;-79
2022/07/10 07:37:37;;;;;;;;;;;;;;;36.40;100.00;100137.16;5074607;28;20021;-80
2022/07/10 07:40:05;;;;;;;;;;;;;;;36.59;100.00;100134.66;5074519;28;19924;-80
2022/07/10 07:42:33;;;;;;;;;;;;;;;36.95;100.00;100144.06;5073472;28;19925;-82
2022/07/10 07:45:00;;;;;;;;;;;;;;;36.79;100.00;100142.50;5074797;28;20368;-81
2022/07/10 07:47:27;;;;;;;;;;;;;;;36.25;100.00;100141.53;5073389;28;20027;-82
2022/07/10 07:49:54;;;;;;;;;;;;;;;36.73;100.00;100141.88;5074801;28;19928;-84
2022/07/10 07:52:22;;;;;;;;;;;;;;;37.32;100.00;100132.44;5074662;28;19925;-83
2022/07/10 07:54:50;;;;;;;;;;;;;;;37.55;100.00;100132.41;5075083;28;20284;-82
2022/07/10 07:57:18;;;;;;;;;;;;;;;37.47;100.00;100125.81;5074461;28;20330;-80
2022/07/10 07:59:45;;;;;;;;;;;;;;;36.71;100.00;100124.22;5073551;28;19925;-82
2022/07/10 08:02:12;;;;;;;;;;;;;;;35.98;100.00;100128.63;5073191;28;19974;-82
2022/07/10 08:04:39;;;;;;;;;;;;;;;36.13;100.00;100131.59;5074614;28;20058;-83
2022/07/10 08:07:06;;;;;;;;;;;;;;;36.53;100.00;100131.16;5072300;28;20442;-81
2022/07/10 08:09:33;;;;;;;;;;;;;;;34.74;100.00;100133.06;5074280;28;19931;-80
2022/07/10 08:12:00;;;;;;;;;;;;;;;34.86;100.00;100136.44;5074195;28;19929;-80
2022/07/10 08:14:27;;;;;;;;;;;;;;;35.71;100.00;100130.19;5075142;28;19928;-84
2022/07/10 08:16:55;;;;;;;;;;;;;;;35.06;100.00;100119.06;5058301;28;19939;-83
2022/07/10 08:19:22;;;;;;;;;;;;;;;33.48;100.00;100130.81;5053073;28;20040;-83
2022/07/10 08:21:49;;;;;;;;;;;;;;;33.64;100.00;100123.94;5035800;28;19970;-83
2022/07/10 08:24:16;;;;;;;;;;;;;;;34.50;100.00;100113.88;5052932;28;19925;-83
2022/07/10 08:26:43;;;;;;;;;;;;;;;35.61;100.00;100111.72;5068615;28;19925;-83
2022/07/10 08:29:10;;;;;;;;;;;;;;;32.92;100.00;100120.28;5068720;28;19925;-83
2022/07/10 08:31:39;;;;;;;;;;;;;;;34.62;100.00;100114.34;5035417;28;19975;-83
2022/07/10 08:34:06;;;;;;;;;;;;;;;35.41;100.00;100109.66;5053235;28;20447;-83
2022/07/10 08:36:33;;;;;;;;;;;;;;;36.28;100.00;100111.31;5085109;28;19932;-83
2022/07/10 08:39:10;;;;;;;;;;;;;;;36.65;100.00;100109.84;5051895;28;20446;-83
2022/07/10 08:41:38;;;;;;;;;;;;;;;36.93;100.00;100106.03;5085180;28;20019;-83
2022/07/10 08:44:05;;;;;;;;;;;;;;;36.90;100.00;100115.94;5051793;28;19971;-83
2022/07/10 08:46:32;;;;;;;;;;;;;;;36.89;100.00;100112.22;5085189;28;19971;-83
2022/07/10 08:49:01;;;;;;;;;;;;;;;34.66;100.00;100111.88;5052841;28;19931;-83
2022/07/10 08:51:40;;;;;;;;;;;;;;;35.56;100.00;100108.97;5051386;28;20021;-83
2022/07/10 08:54:08;;;;;;;;;;;;;;;35.56;100.00;100106.06;5051774;28;19924;-83
2022/07/10 08:56:36;;;;;;;;;;;;;;;34.78;100.00;100109.50;5085218;28;19931;-83
2022/07/10 08:59:06;;;;;;;;;;;;;;;34.16;100.00;100112.25;5035402;28;19924;-83
2022/07/10 09:01:33;;;;;;;;;;;;;;;33.84;100.00;100105.84;5051605;28;19925;-83
2022/07/10 09:04:01;;;;;;;3.08;1.00;;;;;;;34.82;100.00;100081.66;5051764;28;20412;-83
2022/07/10 09:06:28;;;;;;;1.15;0.70;;;;;;;35.86;100.00;100080.09;5033380;28;20406;-83
2022/07/10 09:09:08;;;;;;;1.25;0.65;;;;;;;36.08;100.00;100067.78;5034012;28;20465;-83
2022/07/10 09:11:36;;;;;;;0.80;0.60;;;;;;;33.33;100.00;100081.31;5051098;28;20483;-83
2022/07/10 09:14:07;;;;;;;2.00;0.80;;;;;;;33.23;100.00;100078.13;5050858;28;20871;-83
2022/07/10 09:16:36;;;;;;;2.42;0.60;;;;;;;32.13;100.00;100066.28;5049983;28;20388;-83
2022/07/10 09:19:20;;;;;;;2.00;0.63;;;;;;;33.94;100.00;100090.38;5066261;28;20392;-83
2022/07/10 09:22:07;;;;;;;1.23;0.53;;;;;;;32.37;100.00;100089.31;5049975;28;20392;-83
2022/07/10 09:24:45;;;;;;;2.83;0.90;;;;;;;33.65;100.00;100079.13;5049783;28;20944;-83
2022/07/10 09:27:15;;;;;;;1.83;0.57;;;;;;;34.80;100.00;100064.03;5033212;28;20407;-83
2022/07/10 09:29:55;;;;;;;5.13;0.75;;;;;;;33.66;100.00;100080.66;5066341;28;20391;-83
2022/07/10 09:32:22;;;;;;;3.42;0.70;;;;;;;32.49;100.00;100087.06;5083070;28;20384;-83
2022/07/10 09:37:41;;;;;;;1.95;0.70;;;;;;;33.17;100.00;100067.97;5037066;28;20790;-83
2022/07/10 09:40:09;;;;;;;1.70;0.70;;;;;;;32.68;100.00;100062.53;5054506;28;20388;-83
2022/07/10 09:42:42;;;;;;;3.42;1.20;;;;;;;32.68;100.00;100079.88;5036812;28;20387;-83
2022/07/10 09:45:12;;;;;;;3.70;1.40;;;;;;;32.01;100.00;100078.53;5054879;28;20463;-83
2022/07/10 09:47:42;;;;;;;6.13;1.58;;;;;;;30.89;100.00;100089.03;5052966;28;20395;-83
2022/07/10 09:50:36;;;;;;;2.70;0.90;;;;;;;30.21;100.00;100086.44;5054156;28;20728;-83
2022/07/10 09:53:05;;;;;;;3.78;1.30;;;;;;;29.82;100.00;100074.31;5086341;28;20396;-83
2022/07/10 09:55:34;;;;;;;2.63;0.80;;;;;;;29.05;100.00;100084.78;5036248;28;20387;-82
2022/07/10 09:58:07;;;;;;;3.73;1.10;;;;;;;28.60;100.00;100066.00;5086354;28;20384;-83
2022/07/10 10:00:45;;;;;;;1.95;0.85;;;;;;;27.93;100.00;100079.47;5063531;28;20393;-82
2022/07/10 10:03:15;;;;;;;3.45;1.15;;;;;;;28.27;100.00;100091.81;5071462;28;20436;-82
2022/07/10 10:05:52;;;;;;;3.70;1.20;;;;;;;28.40;100.00;100092.09;5071949;28;20390;-82
2022/07/10 10:08:24;;;;;;;2.20;0.80;;;;;;;28.67;100.00;100100.00;5072883;28;20495;-82
2022/07/10 10:10:53;;;;;;;1.90;0.98;;;;;;;28.99;100.00;100077.47;5073755;28;20382;-83
2022/07/10 10:13:27;;;;;;;6.40;1.10;;;;;;;29.00;100.00;100081.91;5072491;28;20429;-83
2022/07/10 10:15:55;;;;;;;2.28;0.90;;;;;;;28.95;100.00;100074.84;5072654;28;20409;-83
2022/07/10 10:18:25;;;;;;;2.33;0.90;;;;;;;28.18;100.00;100074.84;5055714;28;20390;-83
2022/07/10 10:20:55;;;;;;;2.60;0.80;;;;;;;28.92;100.00;100089.50;5072900;28;20481;-82
2022/07/10 10:23:25;;;;;;;3.42;1.25;;;;;;;28.88;100.00;100069.63;5072758;28;20378;-83
2022/07/10 10:25:56;;;;;;;2.70;1.10;;;;;;;27.55;100.00;100073.59;5072594;28;20540;-83
2022/07/10 10:28:25;;;;;;;1.55;0.75;;;;;;;28.04;100.00;100084.47;5072497;28;20924;-83
2022/07/10 10:30:57;;;;;;;2.47;0.93;;;;;;;28.47;100.00;100068.63;5055900;28;20771;-83
2022/07/10 10:33:34;;;;;;;2.23;0.67;;;;;;;28.24;100.00;100078.50;5072610;28;20393;-83
2022/07/10 10:36:08;;;;;;;1.83;0.75;;;;;;;28.33;100.00;100046.63;5039791;28;20409;-83
2022/07/10 10:38:58;;;;;;;2.13;0.52;;;;;;;28.57;100.00;100043.25;5072456;28;20385;-82
2022/07/10 10:41:45;;;;;;;1.20;0.53;;;;;;;28.49;100.00;100045.88;5063481;28;20494;-82
2022/07/10 10:44:16;;;;;;;2.47;0.70;;;;;;;28.46;100.00;100061.28;5072405;28;20397;-82
2022/07/10 10:46:49;;;;;;;2.30;0.60;;;;;;;28.58;100.00;100051.34;5070874;28;20745;-82
2022/07/10 10:49:21;;;;;;;1.67;0.60;;;;;;;28.28;100.00;100043.75;5073799;28;20390;-82
2022/07/10 10:52:00;;;;;;;1.42;0.60;;;;;;;28.38;100.00;100053.69;5073692;28;20381;-82
2022/07/10 10:54:29;;;;;;;1.20;0.57;;;;;;;27.93;100.00;100033.53;5072182;28;20876;-82
2022/07/10 10:57:14;;;;;;;3.45;0.77;;;;;;;27.83;100.00;100025.66;5055616;28;20401;-82
2022/07/10 10:59:49;;;;;;;3.40;0.70;;;;;;;27.94;100.00;100025.72;5055371;28;20796;-83
2022/07/10 11:02:26;;;;;;;3.45;1.00;;;;;;;27.65;100.00;100034.75;5071536;28;20484;-83
2022/07/10 11:05:17;;;;;;;1.57;0.60;;;;;;;27.55;100.00;100053.50;5071953;28;20390;-83
2022/07/10 11:07:58;;;;;;;3.03;0.90;;;;;;;27.65;100.00;100049.88;5055031;28;20398;-82
2022/07/10 11:10:39;;;;;;;2.38;0.80;;;;;;;28.04;100.00;100050.00;5071830;28;20409;-82
2022/07/10 11:13:13;;;;;;;3.03;0.90;;;;;;;28.01;100.00;100051.03;5055331;28;20832;-82
2022/07/10 11:15:46;;;;;;;1.93;0.80;;;;;;;27.56;100.00;100029.22;5072639;28;20451;-83
2022/07/10 11:18:16;;;;;;;2.53;0.77;;;;;;;26.94;100.00;100030.25;5055251;28;20382;-82
2022/07/10 11:20:50;;;;;;;3.37;0.70;;;;;;;27.16;100.00;100029.56;5072768;28;20390;-82
2022/07/10 11:23:40;;;;;;;2.30;0.80;;;;;;;27.23;100.00;100027.00;5054907;28;20477;-82
2022/07/10 11:26:11;;;;;;;3.97;0.70;;;;;;;27.32;100.00;100052.63;5055132;28;20390;-82
2022/07/10 11:28:51;;;;;;;1.33;0.63;;;;;;;27.45;100.00;100052.16;5054996;28;20929;-82
2022/07/10 11:31:19;;;;;;;1.65;0.60;;;;;;;27.60;100.00;100038.38;5071180;28;20448;-82
2022/07/10 11:33:48;;;;;;;2.60;0.63;;;;;;;27.56;100.00;100026.38;5071273;28;20901;-82
2022/07/10 11:36:18;;;;;;;1.92;0.50;;;;;;;27.61;100.00;100040.72;5072373;28;20394;-82
2022/07/10 11:38:45;;;;;;;2.50;0.88;;;;;;;27.63;100.00;100028.72;5054366;28;20884;-82
2022/07/10 11:41:17;;;;;;;2.15;0.70;;;;;;;27.98;100.00;100038.50;5054871;28;20397;-82
2022/07/10 11:43:48;;;;;;;2.53;0.70;;;;;;;27.89;100.00;100040.84;5070966;28;20386;-82
2022/07/10 11:46:16;;;;;;;2.22;0.55;;;;;;;27.99;100.00;100030.69;5072303;28;20395;-83
2022/07/10 11:48:45;;;;;;;1.30;0.53;;;;;;;27.25;100.00;100035.13;5054689;28;20394;-83
2022/07/10 11:51:25;;;;;;;3.25;0.77;;;;;;;27.80;100.00;100052.53;5054314;28;20496;-82
2022/07/10 11:54:00;;;;;;;2.17;0.70;;;;;;;27.84;100.00;100033.75;5071022;28;20445;-82
2022/07/10 11:56:34;;;;;;;1.80;0.70;;;;;;;27.92;100.00;100020.47;5037886;28;20436;-82
2022/07/10 11:59:10;;;;;;;0.95;0.50;;;;;;;27.82;100.00;100018.34;5070567;28;20379;-82
2022/07/10 12:01:46;;;;;;;2.33;0.70;;;;;;;27.64;100.00;100030.31;5072001;28;20389;-83
2022/07/10 12:04:15;;;;;;;2.23;0.70;;;;;;;27.61;100.00;100014.13;5054075;28;20823;-82
2022/07/10 12:06:44;;;;;;;7.82;1.00;;;;;;;27.66;100.00;100017.00;5070463;28;20467;-82
2022/07/10 12:09:17;;;;;;;1.40;0.70;;;;;;;27.80;100.00;100007.38;5071721;28;20764;-82
2022/07/10 12:12:02;;;;;;;1.27;0.70;;;;;;;28.14;100.00;100020.50;5070597;28;20378;-83
2022/07/10 12:14:29;;;;;;;4.07;0.80;;;;;;;28.09;100.00;100021.28;5053614;28;20488;-83
2022/07/10 12:16:58;;;;;;;3.42;0.85;;;;;;;28.04;100.00;100004.03;5070567;28;20397;-83
2022/07/10 12:19:32;;;;;;;2.47;0.70;;;;;;;27.84;100.00;100013.63;5071641;28;20390;-84
2022/07/10 12:22:01;;;;;;;3.53;0.70;;;;;;;28.41;100.00;100009.53;5070696;28;20406;-83
2022/07/10 12:24:29;;;;;;;1.48;0.60;;;;;;;28.31;100.00;100017.63;5070445;28;20474;-83
2022/07/10 12:26:56;;;;;;;1.08;0.65;;;;;;;28.16;100.00;100042.97;5071609;28;20545;-83
2022/07/10 12:29:32;;;;;;;1.95;0.70;;;;;;;27.97;100.00;100016.03;5070416;28;20448;-83
2022/07/10 12:32:01;;;;;;;6.03;1.27;;;;;;;27.92;100.00;100005.31;5037174;28;20888;-83
2022/07/10 12:34:34;;;;;;;7.75;0.95;;;;;;;27.65;100.00;100003.97;5053578;28;20398;-83